Time;durP1;ratioP1;P1;durP2;ratioP2;P2;SDS_P1;SDS_P2;PMS_P1;PMS_P2;Temp;Humidity;BMP_temperature;BMP_pressure;BME280_temperature;BME280_humidity;BME280_pressure;Samples;Min_cycle;Max_cycle;Signal;HPM_P1;HPM_P2
2021/09/01 00:00:25;;;;;;;4.73;3.83;;;;;;;24.09;50.02;99855.94;2075456;28;20059;-41
2021/09/01 00:01:25;;;;;;;4.30;3.40;;;;;;;24.09;49.99;99850.44;2077501;28;20111;-40
2021/09/01 00:02:26;;;;;;;4.93;3.77;;;;;;;24.09;49.94;99853.19;2075357;28;20037;-40
2021/09/01 00:03:26;;;;;;;5.47;4.27;;;;;;;24.09;49.91;99858.69;2075344;28;20529;-41
2021/09/01 00:04:26;;;;;;;4.37;3.33;;;;;;;24.08;49.80;99859.72;2076970;28;20025;-40
2021/09/01 00:05:27;;;;;;;4.23;3.83;;;;;;;24.08;49.89;99856.97;2075890;28;20021;-41
2021/09/01 00:06:27;;;;;;;5.57;4.07;;;;;;;24.10;49.93;99860.41;2076476;28;20035;-41
2021/09/01 00:07:28;;;;;;;5.17;3.87;;;;;;;24.08;49.87;99867.97;2075474;28;20033;-40
2021/09/01 00:08:28;;;;;;;5.50;3.50;;;;;;;24.09;49.95;99866.97;2074687;28;20033;-41
2021/09/01 00:09:29;;;;;;;5.13;3.70;;;;;;;24.07;49.88;99860.78;2077006;28;20491;-41
2021/09/01 00:10:29;;;;;;;5.67;3.83;;;;;;;24.07;49.83;99861.63;2076305;28;20422;-40
2021/09/01 00:11:31;;;;;;;4.33;3.57;;;;;;;24.07;50.01;99861.63;2075780;28;20137;-41
2021/09/01 00:12:31;;;;;;;7.53;3.35;;;;;;;24.07;49.92;99860.78;2076624;28;20432;-41
2021/09/01 00:13:32;;;;;;;5.93;3.43;;;;;;;24.07;49.75;99869.88;2075710;28;20025;-40
2021/09/01 00:14:34;;;;;;;5.60;3.70;;;;;;;24.07;49.88;99867.13;2076079;28;20048;-41
2021/09/01 00:15:34;;;;;;;4.50;3.53;;;;;;;24.07;49.92;99871.78;2063518;28;20273;-40
2021/09/01 00:16:35;;;;;;;4.83;3.30;;;;;;;24.08;49.94;99873.50;2067815;28;20061;-40
2021/09/01 00:17:37;;;;;;;3.80;3.40;;;;;;;24.07;49.90;99869.03;2078722;28;20036;-41
2021/09/01 00:18:37;;;;;;;;;;;;;;;24.02;50.06;99874.25;2075800;28;20021;-40
2021/09/01 00:19:37;;;;;;;4.95;3.28;;;;;;;24.05;49.99;99873.88;2077517;28;20007;-40
2021/09/01 00:20:38;;;;;;;5.20;3.97;;;;;;;24.05;50.06;99871.13;2074436;28;20578;-41
2021/09/01 00:21:39;;;;;;;6.07;3.87;;;;;;;24.06;50.06;99875.59;2071633;28;20037;-41
2021/09/01 00:22:39;;;;;;;5.27;3.73;;;;;;;24.06;50.01;99875.59;2076610;28;20096;-41
2021/09/01 00:23:39;;;;;;;5.43;3.47;;;;;;;24.06;50.05;99881.09;2074252;28;22125;-41
2021/09/01 00:24:40;;;;;;;5.27;3.80;;;;;;;24.06;50.03;99870.09;2077258;28;20064;-41
2021/09/01 00:25:42;;;;;;;4.70;3.57;;;;;;;24.05;49.97;99868.38;2075966;28;20037;-40
2021/09/01 00:26:43;;;;;;;5.15;3.65;;;;;;;24.06;49.86;99870.09;2076565;28;20043;-40
2021/09/01 00:27:44;;;;;;;5.40;3.47;;;;;;;24.06;49.96;99872.84;2071964;28;20030;-41
2021/09/01 00:28:45;;;;;;;4.53;3.90;;;;;;;24.05;50.04;99869.22;2075672;28;20470;-40
2021/09/01 00:29:46;;;;;;;4.82;3.78;;;;;;;24.06;50.02;99870.09;2074706;28;20111;-40
2021/09/01 00:30:46;;;;;;;4.57;3.60;;;;;;;24.06;50.02;99870.09;2074521;28;20029;-40
2021/09/01 00:31:46;;;;;;;4.63;3.97;;;;;;;24.06;50.04;99875.59;2079632;28;20315;-40
2021/09/01 00:32:47;;;;;;;5.40;3.83;;;;;;;24.06;50.02;99870.94;2078073;28;20040;-40
2021/09/01 00:33:48;;;;;;;4.60;3.77;;;;;;;24.06;50.05;99870.09;2073086;28;20336;-39
2021/09/01 00:34:48;;;;;;;4.85;3.72;;;;;;;24.05;50.18;99868.38;2077041;28;20025;-41
2021/09/01 00:35:49;;;;;;;4.63;3.90;;;;;;;24.06;50.04;99875.59;2078174;28;20301;-40
2021/09/01 00:36:49;;;;;;;4.00;3.13;;;;;;;24.07;49.97;99880.06;2070009;28;20021;-41
2021/09/01 00:37:50;;;;;;;5.47;3.73;;;;;;;24.06;50.10;99876.44;2076236;28;20067;-41
2021/09/01 00:38:50;;;;;;;5.63;3.90;;;;;;;24.06;50.19;99876.44;2073819;28;20021;-40
2021/09/01 00:39:51;;;;;;;4.57;3.30;;;;;;;24.07;49.97;99871.78;2075704;28;20024;-40
2021/09/01 00:40:53;;;;;;;4.53;3.60;;;;;;;24.06;49.96;99872.84;2074838;28;20041;-40
2021/09/01 00:41:54;;;;;;;4.50;3.17;;;;;;;24.06;49.89;99872.84;2076125;28;20076;-41
2021/09/01 00:42:55;;;;;;;4.60;3.90;;;;;;;24.06;50.14;99875.59;2075786;28;21423;-40
2021/09/01 00:44:20;;;;;;;4.85;3.70;;;;;;;24.04;50.02;99873.03;2076499;28;20320;-41
2021/09/01 00:45:20;;;;;;;5.68;4.25;;;;;;;24.05;50.01;99873.88;2074535;28;20040;-40
2021/09/01 00:46:21;;;;;;;3.93;3.53;;;;;;;24.05;49.86;99868.38;2075984;28;20069;-40
2021/09/01 00:47:22;;;;;;;5.25;3.80;;;;;;;24.03;49.99;99865.78;2087401;28;20030;-41
2021/09/01 00:48:24;;;;;;;5.10;4.17;;;;;;;24.05;49.90;99873.88;2081593;28;20024;-41
2021/09/01 00:49:29;;;;;;;4.97;3.85;;;;;;;24.04;49.95;99869.44;2076474;28;20302;-41
2021/09/01 00:50:30;;;;;;;5.47;3.83;;;;;;;24.04;49.92;99867.53;2079601;28;20152;-40
2021/09/01 00:51:30;;;;;;;4.70;3.57;;;;;;;24.05;50.09;99868.38;2072883;28;20280;-41
2021/09/01 00:52:31;;;;;;;7.13;4.37;;;;;;;24.06;50.00;99870.09;2075392;28;20044;-40
2021/09/01 00:53:34;;;;;;;4.00;3.47;;;;;;;24.05;49.99;99879.38;2070832;28;20312;-40
2021/09/01 00:54:37;;;;;;;5.25;3.78;;;;;;;24.04;49.91;99869.44;2074596;28;20110;-40
2021/09/01 00:55:42;;;;;;;4.45;3.67;;;;;;;24.06;50.03;99867.34;2075377;28;20432;-40
2021/09/01 00:56:45;;;;;;;4.85;3.70;;;;;;;24.05;50.03;99868.38;2075574;28;20432;-41
2021/09/01 00:57:46;;;;;;;4.63;3.28;;;;;;;24.04;49.88;99872.19;2076691;28;20135;-41
2021/09/01 00:58:47;;;;;;;4.83;4.07;;;;;;;24.04;49.88;99872.19;2075154;28;20036;-41
2021/09/01 00:59:48;;;;;;;5.25;3.65;;;;;;;24.04;49.95;99869.44;2075426;28;20052;-41
2021/09/01 01:02:11;;;;;;;6.10;3.58;;;;;;;24.03;50.08;99876.81;2070096;28;20067;-40
2021/09/01 01:03:13;;;;;;;4.80;3.53;;;;;;;24.03;49.92;99870.44;2075880;28;20063;-41
2021/09/01 01:04:14;;;;;;;;;;;;;;;23.99;50.02;99869.13;2072933;28;20154;-41
2021/09/01 01:05:14;;;;;;;4.40;3.00;;;;;;;24.00;50.02;99868.06;2075509;28;19924;-41
2021/09/01 01:06:23;;;;;;;4.97;3.73;;;;;;;23.99;50.01;99874.63;2075757;28;20029;-40
2021/09/01 01:07:24;;;;;;;4.15;3.28;;;;;;;24.01;49.93;99867.03;2071287;28;20025;-41
2021/09/01 01:08:31;;;;;;;4.50;3.43;;;;;;;24.01;49.93;99869.78;2074723;28;20039;-40
2021/09/01 01:09:34;;;;;;;5.05;4.03;;;;;;;24.04;50.17;99861.16;2077425;28;20430;-40
2021/09/01 01:10:34;;;;;;;4.30;3.38;;;;;;;24.05;49.84;99871.13;2076774;28;20034;-40
2021/09/01 01:11:36;;;;;;;6.23;4.03;;;;;;;24.04;50.03;99861.16;2072217;28;20032;-40
2021/09/01 01:12:37;;;;;;;4.30;3.28;;;;;;;24.05;49.91;99868.38;2087305;28;20615;-40
2021/09/01 01:13:38;;;;;;;4.47;3.80;;;;;;;24.06;49.90;99867.34;2081844;28;20220;-40
2021/09/01 01:14:45;;;;;;;4.60;3.78;;;;;;;24.05;49.95;99868.38;2080720;28;20586;-40
2021/09/01 01:15:45;;;;;;;4.50;3.65;;;;;;;24.06;50.04;99859.09;2076193;28;20028;-40
2021/09/01 01:16:45;;;;;;;5.30;4.10;;;;;;;24.06;50.09;99862.69;2071702;28;20494;-40
2021/09/01 01:17:46;;;;;;;3.33;3.00;;;;;;;24.07;50.15;99860.78;2082414;28;20033;-40
2021/09/01 01:18:47;;;;;;;4.17;3.50;;;;;;;24.09;50.25;99862.31;2077150;28;20029;-38
2021/09/01 01:19:50;;;;;;;5.43;3.75;;;;;;;24.09;50.19;99858.69;2074554;28;20021;-38
2021/09/01 01:20:52;;;;;;;4.60;3.83;;;;;;;24.09;50.11;99869.72;2076897;28;20533;-38
2021/09/01 01:21:52;;;;;;;;;;;;;;;24.06;50.31;99870.09;2077762;28;20376;-38
2021/09/01 01:22:53;;;;;;;4.53;3.90;;;;;;;24.08;50.53;99862.47;2080112;28;19916;-38
2021/09/01 01:23:58;;;;;;;6.45;3.45;;;;;;;24.07;50.33;99861.63;2075555;28;20467;-37
2021/09/01 01:25:03;;;;;;;5.47;3.83;;;;;;;24.09;50.31;99866.97;2074425;28;20087;-38
2021/09/01 01:26:03;;;;;;;4.20;3.78;;;;;;;24.09;50.60;99872.47;2078348;28;20107;-38
2021/09/01 01:27:04;;;;;;;4.77;3.80;;;;;;;24.10;50.37;99864.00;2073424;28;20040;-38
2021/09/01 01:28:06;;;;;;;6.37;4.13;;;;;;;24.10;50.51;99864.00;2076609;28;20026;-37
2021/09/01 01:29:10;;;;;;;4.82;3.85;;;;;;;24.11;50.61;99873.97;2076018;28;20531;-39
2021/09/01 01:30:16;;;;;;;4.38;3.80;;;;;;;24.10;50.40;99865.91;2075480;28;20060;-39
2021/09/01 01:31:16;;;;;;;4.40;3.63;;;;;;;24.11;50.53;99867.63;2075510;28;20474;-39
2021/09/01 01:32:17;;;;;;;4.33;3.63;;;;;;;24.12;50.60;99867.41;2077391;28;20177;-43
2021/09/01 01:33:17;;;;;;;4.80;4.20;;;;;;;24.10;50.55;99860.41;2073347;28;20032;-39
2021/09/01 01:34:18;;;;;;;4.50;3.40;;;;;;;24.10;50.56;99865.91;2075348;28;20854;-39
2021/09/01 01:35:43;;;;;;;4.10;3.53;;;;;;;24.10;50.72;99874.16;2076024;28;20383;-39
2021/09/01 01:36:44;;;;;;;4.00;3.50;;;;;;;24.11;50.69;99873.13;2074858;28;20063;-47
2021/09/01 01:37:44;;;;;;;4.97;3.37;;;;;;;24.11;50.63;99870.38;2075705;28;20525;-47
2021/09/01 01:38:45;;;;;;;4.50;3.93;;;;;;;24.11;50.84;99867.63;2076714;28;20032;-46
2021/09/01 01:39:46;;;;;;;4.50;4.07;;;;;;;24.11;50.74;99867.63;2074494;28;20016;-47
2021/09/01 01:40:47;;;;;;;5.07;3.83;;;;;;;24.13;50.75;99873.78;2074817;28;20352;-47
2021/09/01 01:41:47;;;;;;;6.10;4.00;;;;;;;24.10;50.85;99869.50;2077433;28;20440;-48
2021/09/01 01:42:49;;;;;;;4.97;3.80;;;;;;;24.11;50.76;99870.38;2075561;28;20048;-48
2021/09/01 01:43:49;;;;;;;4.40;3.45;;;;;;;24.11;50.85;99871.22;2075184;28;20106;-46
2021/09/01 01:44:50;;;;;;;5.50;4.13;;;;;;;24.13;50.80;99871.91;2070093;28;20037;-47
2021/09/01 01:45:50;;;;;;;4.37;3.80;;;;;;;24.13;50.81;99871.91;2072023;28;20549;-47
2021/09/01 01:46:51;;;;;;;5.23;3.33;;;;;;;24.14;50.72;99873.59;2073358;28;20446;-47
2021/09/01 01:47:51;;;;;;;4.43;3.80;;;;;;;24.13;50.89;99868.28;2075461;28;20036;-47
2021/09/01 01:48:52;;;;;;;5.80;3.70;;;;;;;24.13;50.77;99866.41;2072633;28;20088;-47
2021/09/01 01:49:52;;;;;;;4.83;4.13;;;;;;;24.14;50.86;99870.84;2073539;28;20029;-46
2021/09/01 01:50:52;;;;;;;6.87;3.90;;;;;;;24.14;50.92;99870.00;2072431;28;20033;-46
2021/09/01 01:51:53;;;;;;;5.63;4.10;;;;;;;24.14;50.82;99868.09;2072671;28;20098;-46
2021/09/01 01:52:54;;;;;;;5.33;4.17;;;;;;;24.13;50.95;99866.41;2070488;28;20100;-47
2021/09/01 01:53:54;;;;;;;4.20;3.50;;;;;;;24.12;50.65;99867.41;2074896;28;20036;-47
2021/09/01 01:54:55;;;;;;;4.93;3.63;;;;;;;24.15;50.89;99866.19;2070705;28;20804;-46
2021/09/01 01:55:55;;;;;;;4.57;3.80;;;;;;;24.14;51.03;99868.09;2069693;28;20021;-47
2021/09/01 01:56:56;;;;;;;5.47;4.07;;;;;;;24.14;50.75;99862.59;2071370;28;20040;-47
2021/09/01 01:57:56;;;;;;;4.83;3.83;;;;;;;24.14;50.97;99867.25;2073682;28;20586;-47
2021/09/01 01:58:57;;;;;;;4.30;3.47;;;;;;;24.14;50.95;99858.97;2070655;28;20024;-46
2021/09/01 01:59:57;;;;;;;3.67;3.37;;;;;;;24.16;50.98;99865.16;2073609;28;20036;-46
2021/09/01 02:00:58;;;;;;;5.23;3.77;;;;;;;24.13;50.95;99860.00;2071168;28;20021;-46
2021/09/01 02:01:59;;;;;;;5.90;3.90;;;;;;;24.14;51.06;99864.50;2071959;28;20060;-46
2021/09/01 02:03:00;;;;;;;4.07;3.67;;;;;;;24.14;50.98;99858.97;2080737;28;20043;-46
2021/09/01 02:04:00;;;;;;;5.07;4.20;;;;;;;24.16;51.07;99859.66;2081142;28;20050;-47
2021/09/01 02:05:01;;;;;;;5.50;4.07;;;;;;;24.16;50.78;99859.66;2073698;28;20032;-47
2021/09/01 02:06:01;;;;;;;5.90;3.50;;;;;;;24.16;51.07;99859.66;2067869;28;20060;-46
2021/09/01 02:07:02;;;;;;;3.70;3.20;;;;;;;24.16;50.96;99859.66;2073458;28;20465;-46
2021/09/01 02:08:03;;;;;;;5.43;4.20;;;;;;;24.17;51.14;99864.09;2073577;28;20036;-46
2021/09/01 02:09:03;;;;;;;7.90;3.83;;;;;;;24.17;51.00;99866.84;2072121;28;20414;-46
2021/09/01 02:10:06;;;;;;;4.73;3.50;;;;;;;24.16;51.23;99859.66;2073409;28;20103;-46
2021/09/01 02:11:06;;;;;;;4.32;3.42;;;;;;;24.17;51.07;99866.84;2074476;28;20293;-47
2021/09/01 02:12:07;;;;;;;4.13;3.63;;;;;;;24.17;51.09;99858.59;2073340;28;20178;-46
2021/09/01 02:13:07;;;;;;;4.20;3.50;;;;;;;24.16;51.12;99863.25;2074967;28;20078;-47
2021/09/01 02:14:08;;;;;;;4.03;3.40;;;;;;;24.17;51.11;99861.34;2074674;28;20376;-47
2021/09/01 02:15:10;;;;;;;4.27;3.30;;;;;;;24.16;51.19;99868.75;2073813;28;20075;-47
2021/09/01 02:16:10;;;;;;;4.20;3.80;;;;;;;24.16;51.12;99866.00;2073952;28;20072;-47
2021/09/01 02:17:11;;;;;;;4.17;3.73;;;;;;;24.16;51.20;99863.25;2071412;28;20029;-47
2021/09/01 02:18:11;;;;;;;4.53;3.80;;;;;;;24.16;51.20;99865.16;2071599;28;20017;-47
2021/09/01 02:19:12;;;;;;;5.07;3.70;;;;;;;24.17;51.22;99861.34;2074493;28;20041;-47
2021/09/01 02:20:13;;;;;;;4.80;3.83;;;;;;;24.16;51.04;99866.00;2070920;28;20457;-46
2021/09/01 02:21:14;;;;;;;;;;;;;;;24.14;51.28;99870.00;2082389;28;20028;-46
2021/09/01 02:22:15;;;;;;;4.00;3.47;;;;;;;24.14;51.36;99861.75;2074208;28;19959;-47
2021/09/01 02:23:15;;;;;;;4.57;3.72;;;;;;;24.15;51.31;99868.94;2071348;28;20539;-46
2021/09/01 02:24:16;;;;;;;4.60;3.77;;;;;;;24.16;51.28;99865.16;2074539;28;20106;-47
2021/09/01 02:25:16;;;;;;;3.67;3.23;;;;;;;24.17;51.31;99866.84;2071955;28;20032;-47
2021/09/01 02:26:17;;;;;;;4.20;3.50;;;;;;;24.17;51.24;99866.84;2070843;28;20391;-47
2021/09/01 02:27:18;;;;;;;3.40;2.77;;;;;;;24.18;51.26;99869.44;2071357;28;21548;-47
2021/09/01 02:28:18;;;;;;;5.40;3.75;;;;;;;24.17;51.23;99861.34;2073644;28;20177;-46
2021/09/01 02:29:19;;;;;;;4.20;3.37;;;;;;;24.17;51.19;99866.84;2073469;28;20217;-46
2021/09/01 02:30:21;;;;;;;4.53;3.90;;;;;;;24.18;51.16;99857.56;2072483;28;20553;-46
2021/09/01 02:31:22;;;;;;;4.95;3.97;;;;;;;24.18;51.01;99868.59;2074132;28;20021;-46
2021/09/01 02:32:23;;;;;;;4.45;3.97;;;;;;;24.18;51.32;99863.06;2074967;28;20017;-46
2021/09/01 02:33:24;;;;;;;4.50;3.60;;;;;;;24.17;51.37;99861.34;2073473;28;20029;-46
2021/09/01 02:34:24;;;;;;;4.87;3.63;;;;;;;24.18;51.42;99857.56;2073637;28;20028;-47
2021/09/01 02:35:25;;;;;;;4.20;3.70;;;;;;;24.18;51.25;99863.94;2074481;28;20055;-47
2021/09/01 02:36:26;;;;;;;4.27;3.20;;;;;;;24.17;51.41;99861.34;2068837;28;20028;-46
2021/09/01 02:37:26;;;;;;;3.90;3.50;;;;;;;24.19;51.25;99870.28;2074167;28;20025;-47
2021/09/01 02:38:27;;;;;;;3.83;3.33;;;;;;;24.20;51.27;99871.13;2073461;28;20596;-46
2021/09/01 02:39:27;;;;;;;4.33;3.37;;;;;;;24.20;51.30;99860.13;2073763;28;20031;-46
2021/09/01 02:40:28;;;;;;;4.70;3.90;;;;;;;24.20;51.27;99860.97;2076557;28;20355;-47
2021/09/01 02:41:28;;;;;;;4.10;3.70;;;;;;;24.20;51.22;99866.47;2073027;28;20017;-46
2021/09/01 02:42:29;;;;;;;5.43;3.63;;;;;;;24.19;51.22;99864.78;2070832;28;20283;-46
2021/09/01 02:43:29;;;;;;;4.10;3.30;;;;;;;24.18;51.16;99868.59;2072306;28;20170;-46
2021/09/01 02:44:30;;;;;;;3.83;3.43;;;;;;;24.19;51.28;99859.28;2073121;28;20413;-46
2021/09/01 02:45:30;;;;;;;6.13;3.93;;;;;;;24.19;51.45;99864.78;2072324;28;20054;-46
2021/09/01 02:46:31;;;;;;;4.07;3.67;;;;;;;24.19;51.13;99864.78;2071855;28;20531;-46
2021/09/01 02:47:31;;;;;;;4.10;3.53;;;;;;;24.18;51.32;99857.56;2070368;28;20553;-48
2021/09/01 02:48:32;;;;;;;5.33;3.80;;;;;;;24.18;51.21;99863.06;2073172;28;20174;-47
2021/09/01 02:49:32;;;;;;;4.10;3.57;;;;;;;24.19;51.15;99864.78;2074039;28;20017;-46
2021/09/01 02:50:33;;;;;;;4.17;3.77;;;;;;;24.19;51.17;99864.78;2071923;28;20430;-46
2021/09/01 02:51:33;;;;;;;4.37;3.97;;;;;;;24.18;51.34;99863.06;2073458;28;20469;-47
2021/09/01 02:52:34;;;;;;;4.15;3.45;;;;;;;24.18;51.29;99868.59;2069521;28;20749;-47
2021/09/01 02:53:34;;;;;;;5.10;3.63;;;;;;;24.19;51.15;99864.78;2065917;28;20033;-47
2021/09/01 02:54:35;;;;;;;4.13;3.47;;;;;;;24.19;51.29;99856.50;2072193;28;20017;-46
2021/09/01 02:55:35;;;;;;;5.20;3.57;;;;;;;24.18;51.28;99858.41;2072227;28;20560;-47
2021/09/01 02:56:35;;;;;;;3.63;3.27;;;;;;;24.20;51.46;99852.69;2074659;28;20040;-46
2021/09/01 02:57:36;;;;;;;4.53;3.43;;;;;;;24.20;51.08;99852.69;2073875;28;20032;-46
2021/09/01 02:58:36;;;;;;;3.60;3.00;;;;;;;24.20;51.31;99855.47;2071170;28;20029;-46
2021/09/01 02:59:37;;;;;;;5.60;3.90;;;;;;;24.20;51.20;99852.69;2077722;28;20024;-46
2021/09/01 03:00:37;;;;;;;3.97;3.17;;;;;;;24.17;51.39;99851.19;2074393;28;20056;-46
2021/09/01 03:01:38;;;;;;;4.03;3.40;;;;;;;24.18;51.29;99847.41;2075493;28;20098;-46
2021/09/01 03:02:39;;;;;;;4.20;3.60;;;;;;;24.19;51.21;99859.28;2073518;28;20037;-46
2021/09/01 03:03:39;;;;;;;4.33;3.80;;;;;;;24.18;51.29;99852.91;2074561;28;20064;-46
2021/09/01 03:04:40;;;;;;;4.10;3.47;;;;;;;24.19;51.17;99853.75;2073177;28;20028;-46
2021/09/01 03:05:40;;;;;;;4.87;3.63;;;;;;;24.17;51.19;99856.69;2070899;28;20033;-46
2021/09/01 03:06:41;;;;;;;4.33;3.93;;;;;;;24.16;51.49;99856.91;2073476;28;20478;-46
2021/09/01 03:07:41;;;;;;;4.27;3.70;;;;;;;24.17;51.29;99862.19;2073997;28;20036;-46
2021/09/01 03:08:42;;;;;;;4.23;3.43;;;;;;;24.17;51.37;99861.34;2073665;28;20021;-45
2021/09/01 03:09:42;;;;;;;4.63;3.80;;;;;;;24.17;51.49;99855.84;2074541;28;20382;-46
2021/09/01 03:10:43;;;;;;;5.53;3.47;;;;;;;24.16;51.32;99856.91;2075149;28;20435;-47
2021/09/01 03:11:44;;;;;;;4.73;3.90;;;;;;;24.16;51.34;99854.16;2072619;28;20217;-45
2021/09/01 03:12:44;;;;;;;3.93;3.27;;;;;;;24.18;51.48;99852.06;2073488;28;20025;-45
2021/09/01 03:13:45;;;;;;;4.13;3.67;;;;;;;24.18;51.38;99852.06;2069788;28;20036;-46
2021/09/01 03:14:45;;;;;;;3.40;3.10;;;;;;;24.18;51.30;99850.16;2073656;28;20044;-46
2021/09/01 03:15:46;;;;;;;3.40;3.10;;;;;;;24.18;51.33;99850.16;2073308;28;20131;-46
2021/09/01 03:16:46;;;;;;;4.27;3.67;;;;;;;24.20;51.12;99852.69;2075015;28;20241;-46
2021/09/01 03:17:47;;;;;;;4.63;3.33;;;;;;;24.18;51.46;99844.66;2073653;28;20025;-45
2021/09/01 03:18:47;;;;;;;4.30;3.00;;;;;;;24.18;51.43;99847.41;2072235;28;20029;-47
2021/09/01 03:19:48;;;;;;;3.50;3.03;;;;;;;24.19;51.41;99853.75;2073560;28;20025;-45
2021/09/01 03:20:48;;;;;;;3.70;3.30;;;;;;;24.19;51.26;99853.75;2071782;28;20511;-47
2021/09/01 03:21:50;;;;;;;5.97;3.90;;;;;;;24.19;51.45;99848.25;2070211;28;20525;-46
2021/09/01 03:22:50;;;;;;;6.60;3.95;;;;;;;24.20;51.40;99849.94;2073770;28;20679;-48
2021/09/01 03:23:51;;;;;;;4.67;3.57;;;;;;;24.20;51.32;99849.09;2072189;28;20275;-47
2021/09/01 03:24:51;;;;;;;4.90;3.60;;;;;;;24.20;51.35;99847.19;2074013;28;20021;-48
2021/09/01 03:25:51;;;;;;;5.87;3.87;;;;;;;24.20;51.50;99849.09;2073134;28;20156;-47
2021/09/01 03:26:52;;;;;;;3.70;3.27;;;;;;;24.20;51.44;99849.94;2072254;28;20037;-46
2021/09/01 03:27:52;;;;;;;4.23;3.43;;;;;;;24.19;51.49;99848.25;2074045;28;20111;-47
2021/09/01 03:28:53;;;;;;;4.87;3.77;;;;;;;24.20;51.43;99847.19;2073188;28;20108;-47
2021/09/01 03:29:53;;;;;;;4.03;3.60;;;;;;;24.20;51.36;99852.69;2074566;28;20025;-47
2021/09/01 03:30:53;;;;;;;4.13;3.43;;;;;;;24.18;51.46;99852.06;2074745;28;20048;-47
2021/09/01 03:31:54;;;;;;;4.67;3.73;;;;;;;24.17;51.64;99844.81;2072817;28;20083;-48
2021/09/01 03:32:55;;;;;;;4.00;3.60;;;;;;;24.16;51.48;99840.38;2074353;28;20048;-47
2021/09/01 03:33:56;;;;;;;3.85;3.45;;;;;;;24.17;51.57;99842.06;2074671;28;20058;-47
2021/09/01 03:34:56;;;;;;;4.00;3.50;;;;;;;24.17;51.54;99833.81;2073426;28;20025;-47
2021/09/01 03:35:57;;;;;;;4.27;3.47;;;;;;;24.17;51.53;99839.31;2074026;28;20028;-48
2021/09/01 03:36:58;;;;;;;4.17;3.50;;;;;;;24.17;51.52;99840.16;2073137;28;20123;-48
2021/09/01 03:37:58;;;;;;;4.33;3.27;;;;;;;24.18;51.39;99841.06;2074331;28;20041;-48
2021/09/01 03:38:59;;;;;;;3.40;3.10;;;;;;;24.15;51.57;99831.25;2075507;28;20086;-47
2021/09/01 03:39:59;;;;;;;3.50;3.17;;;;;;;24.17;51.38;99837.41;2074652;28;20020;-47
2021/09/01 03:40:59;;;;;;;4.67;4.27;;;;;;;24.17;51.54;99833.81;2075314;28;20330;-48
2021/09/01 03:42:00;;;;;;;4.03;3.63;;;;;;;24.18;51.48;99841.06;2082691;28;20623;-47
2021/09/01 03:43:01;;;;;;;3.70;3.30;;;;;;;24.16;51.78;99843.13;2072797;28;20078;-48
2021/09/01 03:44:01;;;;;;;4.10;3.47;;;;;;;24.17;51.55;99837.41;2074117;28;20398;-47
2021/09/01 03:45:03;;;;;;;3.43;3.03;;;;;;;24.16;51.50;99843.13;2074453;28;20039;-47
2021/09/01 03:46:03;;;;;;;4.07;3.65;;;;;;;24.16;51.45;99841.22;2073790;28;20040;-47
2021/09/01 03:47:04;;;;;;;4.27;3.27;;;;;;;24.16;51.47;99838.47;2075286;28;20029;-48
2021/09/01 03:48:05;;;;;;;3.90;3.23;;;;;;;24.15;51.38;99842.25;2072154;28;20115;-48
2021/09/01 03:49:05;;;;;;;5.07;3.50;;;;;;;24.15;51.57;99853.25;2073038;28;20073;-48
2021/09/01 03:50:09;;;;;;;4.40;3.50;;;;;;;24.15;51.63;99846.91;2072183;28;20025;-48
2021/09/01 03:51:09;;;;;;;4.35;3.65;;;;;;;24.16;51.64;99848.63;2072872;28;20826;-48
2021/09/01 03:52:10;;;;;;;4.60;3.50;;;;;;;24.16;51.55;99846.72;2075991;28;20066;-47
2021/09/01 03:53:10;;;;;;;4.03;3.33;;;;;;;24.17;51.57;99850.34;2073035;28;20069;-47
2021/09/01 03:54:11;;;;;;;4.10;3.47;;;;;;;24.19;51.51;99842.75;2072703;28;20060;-47
2021/09/01 03:55:12;;;;;;;4.50;3.63;;;;;;;24.16;51.58;99848.63;2070184;28;20033;-47
2021/09/01 03:56:12;;;;;;;4.40;3.80;;;;;;;24.17;51.61;99844.81;2073613;28;20275;-47
2021/09/01 03:57:13;;;;;;;3.50;3.13;;;;;;;24.17;51.39;99844.81;2074175;28;20228;-47
2021/09/01 03:58:13;;;;;;;3.57;3.27;;;;;;;24.17;51.42;99850.34;2073067;28;20060;-48
2021/09/01 03:59:14;;;;;;;4.27;3.40;;;;;;;24.17;51.55;99850.34;2079375;28;20338;-47
2021/09/01 04:00:14;;;;;;;4.10;3.33;;;;;;;24.18;51.57;99846.56;2079875;28;20148;-47
2021/09/01 04:01:15;;;;;;;5.03;3.57;;;;;;;24.18;51.30;99846.56;2076675;28;20620;-47
2021/09/01 04:02:15;;;;;;;4.97;3.70;;;;;;;24.16;51.40;99843.13;2072310;28;20571;-47
2021/09/01 04:03:16;;;;;;;4.10;3.67;;;;;;;24.17;51.49;99850.34;2075899;28;20117;-47
2021/09/01 04:04:17;;;;;;;4.93;4.10;;;;;;;24.16;51.36;99849.50;2067505;28;20163;-47
2021/09/01 04:05:18;;;;;;;4.40;3.30;;;;;;;24.16;51.50;99849.50;2067038;28;20017;-47
2021/09/01 04:06:18;;;;;;;5.67;3.53;;;;;;;24.15;51.50;99847.75;2068282;28;20824;-47
2021/09/01 04:07:19;;;;;;;3.50;3.20;;;;;;;24.15;51.33;99847.75;2076661;28;20021;-47
2021/09/01 04:08:19;;;;;;;5.53;3.77;;;;;;;24.16;51.40;99837.63;2078182;28;20119;-47
2021/09/01 04:09:20;;;;;;;3.93;3.53;;;;;;;24.16;51.41;99852.25;2079089;28;20012;-47
2021/09/01 04:10:20;;;;;;;5.50;4.17;;;;;;;24.16;51.53;99848.63;2079361;28;20013;-47
2021/09/01 04:11:21;;;;;;;4.77;3.80;;;;;;;24.16;51.49;99845.88;2071028;28;20463;-47
2021/09/01 04:12:22;;;;;;;3.63;3.20;;;;;;;24.15;51.40;99846.91;2079573;28;20510;-48
2021/09/01 04:13:22;;;;;;;3.77;3.37;;;;;;;24.15;51.62;99841.41;2085210;28;20436;-47
2021/09/01 04:14:23;;;;;;;4.37;3.60;;;;;;;24.15;51.33;99844.16;2076035;28;20066;-47
2021/09/01 04:15:24;;;;;;;4.43;3.83;;;;;;;24.16;51.33;99848.63;2076749;28;20130;-47
2021/09/01 04:16:24;;;;;;;5.00;3.87;;;;;;;24.16;51.45;99845.88;2079627;28;20417;-47
2021/09/01 04:17:29;;;;;;;3.97;3.57;;;;;;;24.16;51.25;99843.13;2078034;28;20504;-47
2021/09/01 04:18:30;;;;;;;7.05;3.92;;;;;;;24.16;51.48;99845.88;2073796;28;20423;-47
2021/09/01 04:19:31;;;;;;;4.30;3.83;;;;;;;24.16;51.53;99843.97;2077917;28;20020;-47
2021/09/01 04:20:32;;;;;;;4.15;3.63;;;;;;;24.16;51.40;99834.88;2075316;28;20025;-47
2021/09/01 04:21:32;;;;;;;4.93;4.43;;;;;;;24.15;51.61;99841.41;2071686;28;20035;-47
2021/09/01 04:22:33;;;;;;;3.83;3.40;;;;;;;24.15;51.51;99841.41;2073815;28;20478;-47
2021/09/01 04:23:34;;;;;;;4.67;3.03;;;;;;;24.15;51.55;99841.41;2073763;28;20032;-47
2021/09/01 04:24:34;;;;;;;3.43;3.10;;;;;;;24.15;51.47;99842.25;2079261;28;20059;-47
2021/09/01 04:25:34;;;;;;;5.03;4.33;;;;;;;24.16;51.42;99843.97;2072344;28;20139;-47
2021/09/01 04:26:35;;;;;;;3.67;3.20;;;;;;;24.16;51.46;99837.63;2076209;28;20119;-47
2021/09/01 04:27:35;;;;;;;3.53;3.23;;;;;;;24.16;51.55;99843.13;2075463;28;20013;-47
2021/09/01 04:28:36;;;;;;;4.67;3.80;;;;;;;24.15;51.55;99842.25;2074482;28;20512;-47
2021/09/01 04:29:37;;;;;;;3.70;3.13;;;;;;;24.16;51.50;99840.38;2081471;28;20293;-47
2021/09/01 04:30:37;;;;;;;3.80;3.40;;;;;;;24.16;51.51;99843.13;2080217;28;20099;-47
2021/09/01 04:31:37;;;;;;;4.00;3.60;;;;;;;24.16;51.51;99849.50;2074950;28;20013;-47
2021/09/01 04:32:38;;;;;;;4.80;3.27;;;;;;;24.16;51.51;99845.88;2079478;28;20020;-48
2021/09/01 04:33:39;;;;;;;4.60;3.90;;;;;;;24.15;51.52;99841.41;2073102;28;20021;-47
2021/09/01 04:34:39;;;;;;;3.93;3.37;;;;;;;24.14;51.46;99840.56;2075240;28;20036;-47
2021/09/01 04:35:40;;;;;;;3.80;3.40;;;;;;;24.16;51.48;99845.88;2079040;28;20077;-47
2021/09/01 04:36:40;;;;;;;4.00;3.60;;;;;;;24.16;51.35;99840.38;2075027;28;20021;-47
2021/09/01 04:37:41;;;;;;;4.23;3.83;;;;;;;24.15;51.50;99845.00;2071472;28;20582;-47
2021/09/01 04:38:41;;;;;;;3.90;3.50;;;;;;;24.16;51.41;99843.13;2074336;28;20415;-48
2021/09/01 04:39:42;;;;;;;3.93;3.43;;;;;;;24.16;51.58;99843.13;2073111;28;20446;-46
2021/09/01 04:40:42;;;;;;;3.67;3.23;;;;;;;24.15;51.63;99839.50;2075636;28;20484;-48
2021/09/01 04:41:43;;;;;;;4.90;4.23;;;;;;;24.15;51.58;99842.25;2077243;28;20059;-42
2021/09/01 04:42:43;;;;;;;14.33;4.23;;;;;;;24.18;51.56;99841.06;2068385;28;20056;-42
2021/09/01 04:43:44;;;;;;;4.77;3.73;;;;;;;24.18;51.16;99838.28;2074806;28;20461;-41
2021/09/01 04:44:44;;;;;;;5.13;3.63;;;;;;;24.16;51.66;99837.63;2073369;28;20352;-40
2021/09/01 04:45:44;;;;;;;4.73;3.30;;;;;;;24.20;51.50;99838.94;2076390;28;20398;-40
2021/09/01 04:46:45;;;;;;;4.77;3.40;;;;;;;24.17;51.41;99833.81;2072651;28;20501;-41
2021/09/01 04:47:45;;;;;;;4.50;3.70;;;;;;;24.16;51.40;99832.97;2073423;28;20040;-40
2021/09/01 04:48:46;;;;;;;4.50;3.60;;;;;;;24.15;51.36;99835.91;2076368;28;20040;-40